Time;durP1;ratioP1;P1;durP2;ratioP2;P2;SDS_P1;SDS_P2;PMS_P1;PMS_P2;Temp;Humidity;BMP_temperature;BMP_pressure;BME280_temperature;BME280_humidity;BME280_pressure;Samples;Min_cycle;Max_cycle;Signal;HPM_P1;HPM_P2
2023/03/04 00:02:06;;;;;;;23.15;17.92;;;13.30;1.00;;;;;;4971556;28;20554;-53
2023/03/04 00:04:31;;;;;;;25.77;18.48;;;13.30;1.00;;;;;;4971770;28;20117;-54
2023/03/04 00:06:57;;;;;;;23.60;18.50;;;13.30;1.00;;;;;;4972567;28;20129;-51
2023/03/04 00:09:23;;;;;;;23.45;17.25;;;13.20;1.00;;;;;;4958296;28;20043;-52
2023/03/04 00:11:48;;;;;;;25.35;18.98;;;13.20;1.00;;;;;;4953503;29;20558;-51
2023/03/04 00:14:14;;;;;;;28.30;19.05;;;13.20;1.00;;;;;;4953857;29;20374;-54
2023/03/04 00:16:40;;;;;;;25.08;18.27;;;13.20;1.00;;;;;;4954962;29;20035;-54
2023/03/04 00:19:05;;;;;;;29.48;18.52;;;13.20;1.00;;;;;;4955177;29;20122;-52
2023/03/04 00:21:31;;;;;;;25.33;19.15;;;13.20;1.00;;;;;;4955249;29;20054;-52
2023/03/04 00:23:57;;;;;;;28.38;19.40;;;13.20;1.00;;;;;;4954792;29;20129;-50
2023/03/04 00:26:22;;;;;;;25.65;19.10;;;13.20;1.00;;;;;;4958047;28;20046;-49
2023/03/04 00:28:48;;;;;;;27.30;19.35;;;13.20;1.00;;;;;;4959055;29;20030;-55
2023/03/04 00:31:14;;;;;;;30.05;18.70;;;13.20;1.00;;;;;;4959061;29;20039;-53
2023/03/04 00:33:42;;;;;;;27.55;18.83;;;13.20;1.00;;;;;;4957414;28;20039;-51
2023/03/04 00:36:07;;;;;;;23.92;18.13;;;13.20;1.00;;;;;;4958513;29;20481;-52
2023/03/04 00:38:33;;;;;;;29.67;19.48;;;13.10;1.00;;;;;;4958640;29;20038;-53
2023/03/04 00:40:59;;;;;;;27.85;19.67;;;13.20;1.00;;;;;;4942009;29;20031;-49
2023/03/04 00:43:28;;;;;;;26.30;20.15;;;13.20;1.00;;;;;;4958528;29;20089;-53
2023/03/04 00:45:54;;;;;;;25.50;18.15;;;13.20;1.00;;;;;;4941116;29;20095;-53
2023/03/04 00:48:20;;;;;;;26.17;19.15;;;13.10;1.00;;;;;;4939591;29;20032;-49
2023/03/04 00:50:47;;;;;;;26.42;19.60;;;13.10;1.00;;;;;;4939271;29;20103;-51
2023/03/04 00:53:13;;;;;;;29.20;20.50;;;13.10;1.00;;;;;;4922162;29;20044;-52
2023/03/04 00:55:39;;;;;;;26.55;18.27;;;13.00;1.00;;;;;;4939727;29;20035;-52
2023/03/04 00:58:04;;;;;;;27.38;19.80;;;13.10;1.00;;;;;;4939393;29;20094;-50
2023/03/04 01:00:30;;;;;;;24.83;18.45;;;13.10;1.00;;;;;;4939088;29;20028;-50
2023/03/04 01:02:56;;;;;;;28.63;20.45;;;13.10;1.00;;;;;;4939804;29;20044;-55
2023/03/04 01:05:21;;;;;;;29.23;19.27;;;13.20;1.00;;;;;;4938688;29;20051;-50
2023/03/04 01:07:47;;;;;;;30.63;19.17;;;13.20;1.00;;;;;;4938900;29;20047;-53
2023/03/04 01:10:14;;;;;;;28.58;19.33;;;13.20;1.00;;;;;;4939186;29;20122;-51
2023/03/04 01:12:40;;;;;;;25.50;19.48;;;13.20;1.00;;;;;;4939119;29;20035;-53
2023/03/04 01:15:10;;;;;;;27.90;19.90;;;13.20;1.00;;;;;;4939049;29;20027;-51
2023/03/04 01:17:36;;;;;;;30.42;20.48;;;13.20;1.00;;;;;;4938918;29;20089;-52
2023/03/04 01:20:05;;;;;;;30.20;21.02;;;13.10;1.00;;;;;;4939126;29;20028;-49
2023/03/04 01:22:30;;;;;;;26.48;19.25;;;13.10;1.00;;;;;;4938595;29;20087;-50
2023/03/04 01:24:56;;;;;;;25.70;20.23;;;13.10;1.00;;;;;;4938728;29;20028;-53
2023/03/04 01:27:22;;;;;;;28.90;20.25;;;13.10;1.00;;;;;;4938755;29;20130;-51
2023/03/04 01:29:47;;;;;;;27.83;20.10;;;13.10;1.00;;;;;;4938613;29;20430;-52
2023/03/04 01:32:13;;;;;;;30.23;21.65;;;13.20;1.00;;;;;;4938469;29;20046;-49
2023/03/04 01:34:38;;;;;;;29.90;19.85;;;13.20;1.00;;;;;;4938662;29;20034;-54
2023/03/04 01:37:05;;;;;;;25.48;19.25;;;13.20;1.00;;;;;;4937988;29;20393;-53
2023/03/04 01:39:31;;;;;;;33.78;21.35;;;13.20;1.00;;;;;;4921449;29;20028;-50
2023/03/04 01:41:57;;;;;;;29.08;20.63;;;13.20;1.00;;;;;;4939181;29;20102;-50
2023/03/04 01:44:22;;;;;;;27.42;21.67;;;13.10;1.00;;;;;;4940232;29;20544;-48
2023/03/04 01:46:54;;;;;;;28.98;21.00;;;13.10;1.00;;;;;;4957513;29;20039;-50
2023/03/04 01:49:19;;;;;;;32.83;21.58;;;13.10;1.00;;;;;;4957723;29;20074;-52
2023/03/04 01:51:52;;;;;;;28.95;21.20;;;13.10;1.00;;;;;;4957228;29;20051;-52
2023/03/04 01:54:18;;;;;;;33.03;21.35;;;13.10;1.00;;;;;;4940000;29;20027;-52
2023/03/04 01:56:46;;;;;;;29.60;21.20;;;13.00;1.00;;;;;;4957153;29;20078;-50
2023/03/04 01:59:13;;;;;;;28.25;21.05;;;13.00;1.00;;;;;;4957205;29;20036;-50
2023/03/04 02:01:45;;;;;;;28.58;20.67;;;13.00;1.00;;;;;;4957099;29;20544;-50
2023/03/04 02:04:12;;;;;;;31.92;22.58;;;12.90;1.00;;;;;;4957092;29;20053;-49
2023/03/04 02:06:40;;;;;;;28.05;20.75;;;12.90;1.00;;;;;;4956764;29;20055;-50
2023/03/04 02:09:06;;;;;;;34.22;20.33;;;12.90;1.00;;;;;;4956395;29;20385;-51
2023/03/04 02:11:33;;;;;;;27.80;21.33;;;12.80;1.00;;;;;;4956573;29;20039;-54
2023/03/04 02:13:59;;;;;;;30.13;20.05;;;12.90;1.00;;;;;;4939925;29;20027;-53
2023/03/04 02:16:25;;;;;;;27.38;19.70;;;12.80;1.00;;;;;;4956864;29;20023;-53
2023/03/04 02:19:19;;;;;;;28.73;21.52;;;12.80;1.00;;;;;;4956738;29;20378;-53
2023/03/04 02:21:44;;;;;;;26.23;20.13;;;12.90;1.00;;;;;;4956602;29;20023;-50
2023/03/04 02:24:40;;;;;;;29.98;21.05;;;12.90;1.00;;;;;;4956750;29;20508;-52
2023/03/04 02:27:06;;;;;;;28.98;23.17;;;12.90;1.00;;;;;;4956659;29;20119;-51
2023/03/04 02:29:31;;;;;;;30.67;20.73;;;12.90;1.00;;;;;;4956496;29;20106;-52
2023/03/04 02:31:57;;;;;;;36.58;23.55;;;12.90;1.00;;;;;;4956095;29;20035;-49
2023/03/04 02:34:27;;;;;;;31.17;22.50;;;12.80;1.00;;;;;;4955793;29;20023;-55
2023/03/04 02:36:54;;;;;;;30.80;21.88;;;12.80;1.00;;;;;;4956032;29;20027;-51
2023/03/04 02:39:19;;;;;;;33.45;22.42;;;12.80;1.00;;;;;;4955772;29;20035;-52
2023/03/04 02:41:46;;;;;;;31.30;21.80;;;12.80;1.00;;;;;;4938521;29;20114;-53
2023/03/04 02:44:21;;;;;;;33.92;22.92;;;12.80;1.00;;;;;;4955563;29;20027;-52
2023/03/04 02:46:48;;;;;;;30.88;22.40;;;12.80;1.00;;;;;;4955604;29;20532;-52
2023/03/04 02:49:13;;;;;;;31.05;21.23;;;12.80;1.00;;;;;;4954818;28;20058;-54
2023/03/04 02:51:39;;;;;;;31.42;22.15;;;12.70;1.00;;;;;;4955596;29;20051;-55
2023/03/04 02:54:14;;;;;;;31.92;20.88;;;12.80;1.00;;;;;;4955645;29;20019;-52
2023/03/04 02:56:48;;;;;;;35.97;23.60;;;12.70;1.00;;;;;;4955056;29;20066;-52
2023/03/04 02:59:13;;;;;;;32.03;21.52;;;12.80;1.00;;;;;;4954542;29;20067;-49
2023/03/04 03:01:39;;;;;;;25.52;20.48;;;12.80;1.00;;;;;;4955202;29;20062;-48
2023/03/04 03:04:05;;;;;;;25.25;21.42;;;12.80;1.00;;;;;;4955131;29;20043;-53
2023/03/04 03:06:31;;;;;;;30.15;21.42;;;12.80;1.00;;;;;;4955356;29;20062;-51
2023/03/04 03:08:56;;;;;;;33.30;21.85;;;12.80;1.00;;;;;;4955452;29;20173;-52
2023/03/04 03:11:22;;;;;;;30.15;21.55;;;12.80;1.00;;;;;;4955372;29;20106;-53
2023/03/04 03:13:48;;;;;;;31.30;22.35;;;12.80;1.00;;;;;;4955341;29;20489;-54
2023/03/04 03:16:13;;;;;;;34.75;23.52;;;12.80;1.00;;;;;;4955160;29;20035;-54
2023/03/04 03:18:40;;;;;;;34.00;23.60;;;12.80;1.00;;;;;;4955317;29;20119;-51
2023/03/04 03:21:06;;;;;;;30.35;22.67;;;12.70;1.00;;;;;;4954966;29;20396;-51
2023/03/04 03:23:32;;;;;;;33.58;23.67;;;12.70;1.00;;;;;;4955014;29;20042;-53
2023/03/04 03:25:58;;;;;;;30.02;23.23;;;12.70;1.00;;;;;;4954850;29;20127;-54
2023/03/04 03:28:24;;;;;;;31.48;22.60;;;12.60;1.00;;;;;;4954915;29;20122;-51
2023/03/04 03:30:49;;;;;;;34.65;24.98;;;12.50;1.00;;;;;;4954956;29;20117;-51
2023/03/04 03:33:15;;;;;;;39.08;28.45;;;12.50;1.00;;;;;;4955711;29;20027;-54
2023/03/04 03:35:41;;;;;;;29.90;22.98;;;12.50;1.00;;;;;;4955403;29;20120;-52
2023/03/04 03:38:06;;;;;;;31.10;22.42;;;12.40;1.00;;;;;;4955662;29;20114;-54
2023/03/04 03:40:32;;;;;;;30.50;22.98;;;12.40;1.00;;;;;;4955616;29;20110;-54
2023/03/04 03:42:58;;;;;;;33.38;24.83;;;12.40;1.00;;;;;;4955603;29;20031;-50
2023/03/04 03:45:23;;;;;;;32.80;23.35;;;12.40;1.00;;;;;;4938371;29;20054;-53
2023/03/04 03:47:49;;;;;;;35.20;23.67;;;12.30;1.00;;;;;;4938075;29;20039;-53
2023/03/04 03:50:15;;;;;;;31.75;22.63;;;12.30;1.00;;;;;;4955473;29;20378;-48
2023/03/04 03:52:41;;;;;;;31.27;23.48;;;12.30;1.00;;;;;;4955004;29;20038;-52
2023/03/04 03:55:07;;;;;;;28.85;22.60;;;12.30;1.00;;;;;;4938151;29;20028;-49
2023/03/04 03:57:33;;;;;;;34.88;24.40;;;12.30;1.00;;;;;;4955407;29;20062;-55
2023/03/04 03:59:59;;;;;;;35.08;24.73;;;12.30;1.00;;;;;;4937314;29;20481;-54
2023/03/04 04:02:24;;;;;;;29.58;21.67;;;12.20;1.00;;;;;;4955585;29;20031;-48
2023/03/04 04:04:50;;;;;;;32.13;24.05;;;12.20;1.00;;;;;;4954793;29;20198;-51
2023/03/04 04:07:16;;;;;;;31.75;24.35;;;12.10;1.00;;;;;;4955149;29;20047;-54
2023/03/04 04:09:42;;;;;;;32.65;24.58;;;12.00;1.00;;;;;;4955282;29;20038;-52
2023/03/04 04:12:07;;;;;;;33.88;24.33;;;12.00;1.00;;;;;;4955748;29;20035;-52
2023/03/04 04:14:33;;;;;;;29.02;22.83;;;12.10;1.00;;;;;;4955024;29;20051;-50
2023/03/04 04:16:59;;;;;;;35.92;24.77;;;12.10;1.00;;;;;;4955219;29;20111;-50
2023/03/04 04:19:25;;;;;;;33.97;23.85;;;12.10;1.00;;;;;;4954873;29;20082;-47
2023/03/04 04:22:03;;;;;;;37.92;24.23;;;12.10;1.00;;;;;;4955020;29;20485;-49
2023/03/04 04:24:29;;;;;;;34.05;24.42;;;12.00;1.00;;;;;;4955290;29;20063;-48
2023/03/04 04:26:56;;;;;;;32.67;23.30;;;12.00;1.00;;;;;;4954861;29;20039;-49
2023/03/04 04:29:22;;;;;;;31.73;23.13;;;11.90;1.00;;;;;;4955066;29;20023;-51
2023/03/04 04:31:48;;;;;;;30.98;23.33;;;11.90;1.00;;;;;;4954939;29;20533;-50
2023/03/04 04:34:13;;;;;;;30.40;23.48;;;11.90;1.00;;;;;;4954541;29;20394;-50
2023/03/04 04:36:39;;;;;;;31.10;23.20;;;11.90;1.00;;;;;;4955034;29;20126;-52
2023/03/04 04:39:05;;;;;;;28.65;23.35;;;11.90;1.00;;;;;;4954823;29;20407;-54
2023/03/04 04:41:36;;;;;;;31.83;23.30;;;11.90;1.00;;;;;;4937508;29;20035;-53
2023/03/04 04:44:02;;;;;;;33.05;23.80;;;11.90;1.00;;;;;;4954780;29;20535;-52
2023/03/04 04:46:28;;;;;;;32.90;23.92;;;11.90;1.00;;;;;;4954555;29;20110;-52
2023/03/04 04:48:54;;;;;;;36.63;24.73;;;11.80;1.00;;;;;;4954660;29;20030;-49
2023/03/04 04:51:20;;;;;;;36.72;24.63;;;11.80;1.00;;;;;;4954699;29;20451;-52
2023/03/04 04:53:46;;;;;;;36.65;25.17;;;11.80;1.00;;;;;;4954844;29;20039;-53
2023/03/04 04:56:15;;;;;;;34.25;23.42;;;11.80;1.00;;;;;;4954522;29;20385;-51
2023/03/04 04:58:41;;;;;;;30.20;23.65;;;11.70;1.00;;;;;;4954812;29;20031;-49
2023/03/04 05:01:08;;;;;;;32.90;24.27;;;11.70;1.00;;;;;;4954880;29;20107;-49
2023/03/04 05:03:35;;;;;;;40.22;25.90;;;11.60;1.00;;;;;;4954591;29;20456;-50
2023/03/04 05:06:03;;;;;;;38.78;25.25;;;11.60;1.00;;;;;;4954398;29;20039;-52
2023/03/04 05:08:28;;;;;;;34.53;24.50;;;11.60;1.00;;;;;;4954437;29;20462;-52
2023/03/04 05:10:54;;;;;;;34.25;24.33;;;11.60;1.00;;;;;;4954841;28;20042;-54
2023/03/04 05:13:20;;;;;;;33.45;24.80;;;11.50;1.00;;;;;;4957405;29;20360;-49
2023/03/04 05:15:46;;;;;;;33.17;24.30;;;11.50;1.00;;;;;;4957983;29;20058;-54
2023/03/04 05:18:12;;;;;;;36.25;25.27;;;11.60;1.00;;;;;;4958235;29;20031;-53
2023/03/04 05:20:38;;;;;;;32.05;24.38;;;11.50;1.00;;;;;;4958197;29;20110;-50
2023/03/04 05:23:03;;;;;;;34.55;23.98;;;11.60;1.00;;;;;;4958390;29;20568;-51
2023/03/04 05:25:29;;;;;;;37.88;25.63;;;11.50;1.00;;;;;;4958305;29;20031;-53
2023/03/04 05:27:55;;;;;;;38.65;26.17;;;11.50;1.00;;;;;;4957993;29;20147;-54
2023/03/04 05:30:20;;;;;;;34.47;24.77;;;11.50;1.00;;;;;;4949287;29;20114;-54
2023/03/04 05:32:46;;;;;;;36.72;26.77;;;11.50;1.00;;;;;;4938795;29;20436;-50
2023/03/04 05:35:12;;;;;;;36.80;24.98;;;11.40;1.00;;;;;;4938389;29;20530;-51
2023/03/04 05:37:37;;;;;;;36.58;25.10;;;11.50;1.00;;;;;;4938393;29;20035;-52
2023/03/04 05:40:04;;;;;;;38.60;25.63;;;11.40;1.00;;;;;;4938464;29;20028;-53
2023/03/04 05:42:29;;;;;;;38.45;27.58;;;11.40;1.00;;;;;;4921222;29;20127;-52
2023/03/04 05:44:55;;;;;;;34.88;26.73;;;11.40;1.00;;;;;;4938361;29;20107;-51
2023/03/04 05:47:21;;;;;;;34.55;25.73;;;11.40;1.00;;;;;;4938262;29;20043;-51
2023/03/04 05:49:47;;;;;;;36.63;26.65;;;11.40;1.00;;;;;;4938300;29;20027;-52
2023/03/04 05:52:12;;;;;;;36.83;26.60;;;11.40;1.00;;;;;;4938432;29;20114;-55
2023/03/04 05:54:38;;;;;;;37.55;25.75;;;11.40;1.00;;;;;;4938206;29;20050;-54
2023/03/04 05:57:04;;;;;;;38.75;27.27;;;11.40;1.00;;;;;;4938031;29;20042;-50
2023/03/04 05:59:30;;;;;;;35.53;25.52;;;11.40;1.00;;;;;;4938071;29;20099;-49
2023/03/04 06:01:55;;;;;;;36.25;26.25;;;11.30;1.00;;;;;;4937989;29;20055;-52
2023/03/04 06:04:21;;;;;;;36.88;26.58;;;11.30;1.00;;;;;;4937750;29;20067;-52
2023/03/04 06:06:48;;;;;;;36.00;26.15;;;11.30;1.00;;;;;;4938146;29;20068;-51
2023/03/04 06:09:14;;;;;;;36.35;26.58;;;11.30;1.00;;;;;;4920781;29;20419;-53
2023/03/04 06:11:40;;;;;;;36.88;26.23;;;11.30;1.00;;;;;;4937849;29;20051;-56
2023/03/04 06:14:06;;;;;;;36.55;24.73;;;11.30;1.00;;;;;;4938021;29;20066;-53
2023/03/04 06:16:32;;;;;;;32.55;23.48;;;11.30;1.00;;;;;;4937983;29;20063;-52
2023/03/04 06:18:58;;;;;;;36.30;23.77;;;11.30;1.00;;;;;;4937731;29;20024;-54
2023/03/04 06:21:23;;;;;;;32.95;24.15;;;11.30;1.00;;;;;;4937673;29;20090;-52
2023/03/04 06:23:49;;;;;;;34.88;24.45;;;11.30;1.00;;;;;;4937756;29;20024;-48
2023/03/04 06:26:15;;;;;;;35.33;25.80;;;11.30;1.00;;;;;;4937617;29;20059;-51
2023/03/04 06:28:42;;;;;;;38.75;25.85;;;11.30;1.00;;;;;;4938071;29;20043;-53
2023/03/04 06:31:07;;;;;;;34.00;23.98;;;11.20;1.00;;;;;;4937680;29;20042;-53
2023/03/04 06:33:33;;;;;;;59.33;36.72;;;11.30;1.00;;;;;;4937462;29;20062;-53
2023/03/04 06:35:59;;;;;;;45.83;29.67;;;11.30;1.00;;;;;;4937272;29;20028;-52
2023/03/04 06:38:25;;;;;;;42.38;26.48;;;11.20;1.00;;;;;;4937450;29;20039;-54
2023/03/04 06:40:51;;;;;;;57.83;32.17;;;11.20;1.00;;;;;;4937286;29;20031;-53
2023/03/04 06:43:18;;;;;;;41.63;27.10;;;11.30;1.00;;;;;;4920201;29;20032;-49
2023/03/04 06:45:44;;;;;;;34.78;25.80;;;11.20;1.00;;;;;;4937366;29;20042;-53
2023/03/04 06:48:10;;;;;;;39.92;26.27;;;11.30;1.00;;;;;;4937460;29;20035;-51
2023/03/04 06:50:36;;;;;;;43.72;28.80;;;11.30;1.00;;;;;;4937083;29;20121;-50
2023/03/04 06:53:01;;;;;;;58.50;32.50;;;11.20;1.00;;;;;;4920040;29;20486;-51
2023/03/04 06:55:27;;;;;;;38.78;26.77;;;11.20;1.00;;;;;;4937178;29;20382;-51
2023/03/04 06:57:53;;;;;;;34.45;24.15;;;11.20;1.00;;;;;;4937026;29;20106;-53
2023/03/04 07:00:18;;;;;;;36.40;25.50;;;11.20;1.00;;;;;;4937156;29;20035;-55
2023/03/04 07:02:44;;;;;;;37.67;25.48;;;11.30;1.00;;;;;;4936818;29;20053;-48
2023/03/04 07:05:10;;;;;;;39.72;26.17;;;11.30;1.00;;;;;;4936620;29;20103;-50
2023/03/04 07:07:37;;;;;;;40.03;25.92;;;11.30;1.00;;;;;;4937207;29;20040;-52
2023/03/04 07:10:03;;;;;;;34.35;25.75;;;11.30;1.00;;;;;;4937908;29;20102;-52
2023/03/04 07:12:28;;;;;;;38.53;28.00;;;11.30;1.00;;;;;;4936799;29;20037;-48
2023/03/04 07:14:54;;;;;;;38.28;25.50;;;11.30;1.00;;;;;;4936911;29;20024;-51
2023/03/04 07:17:20;;;;;;;36.40;27.55;;;11.40;1.00;;;;;;4936937;29;20028;-50
2023/03/04 07:19:45;;;;;;;44.38;26.88;;;11.40;1.00;;;;;;4936955;29;20032;-50
2023/03/04 07:22:11;;;;;;;42.42;28.20;;;11.40;1.00;;;;;;4955640;29;20035;-51
2023/03/04 07:24:37;;;;;;;59.15;34.45;;;11.40;1.00;;;;;;4955851;29;20027;-52
2023/03/04 07:27:02;;;;;;;53.28;30.30;;;11.40;1.00;;;;;;4955769;29;20039;-51
2023/03/04 07:29:28;;;;;;;43.08;29.40;;;11.40;1.00;;;;;;4955423;29;20059;-54
2023/03/04 07:31:54;;;;;;;41.58;27.20;;;11.40;1.00;;;;;;4955463;29;20034;-53
2023/03/04 07:34:20;;;;;;;41.15;27.90;;;11.40;1.00;;;;;;4955078;28;20027;-55
2023/03/04 07:36:45;;;;;;;40.85;28.85;;;11.50;1.00;;;;;;4955603;29;20492;-54
2023/03/04 07:39:12;;;;;;;46.10;28.92;;;11.50;1.00;;;;;;4955156;29;20023;-54
2023/03/04 07:41:38;;;;;;;47.47;31.98;;;11.50;1.00;;;;;;4955297;29;20035;-53
2023/03/04 07:44:06;;;;;;;47.40;30.83;;;11.50;1.00;;;;;;4955378;29;20512;-55
2023/03/04 07:46:32;;;;;;;91.32;46.58;;;11.50;1.00;;;;;;4955757;29;20461;-53
2023/03/04 07:48:58;;;;;;;44.53;30.27;;;11.50;1.00;;;;;;4955235;29;20086;-50
2023/03/04 07:51:25;;;;;;;45.90;30.40;;;11.50;1.00;;;;;;4955477;29;20062;-55
2023/03/04 07:53:55;;;;;;;43.03;29.30;;;11.50;1.00;;;;;;4956018;29;20031;-52
2023/03/04 07:56:24;;;;;;;52.97;34.65;;;11.50;1.00;;;;;;4955211;29;20027;-54
2023/03/04 07:58:52;;;;;;;43.83;32.47;;;11.50;1.00;;;;;;4955075;29;20478;-51
2023/03/04 08:01:31;;;;;;;46.25;31.25;;;11.50;1.00;;;;;;4954997;29;20496;-51
2023/03/04 08:03:57;;;;;;;53.35;33.97;;;11.50;1.00;;;;;;4954999;29;20090;-48
2023/03/04 08:06:25;;;;;;;45.75;31.95;;;11.60;1.00;;;;;;4955164;29;20031;-48
2023/03/04 08:08:59;;;;;;;43.72;30.92;;;11.60;1.00;;;;;;4955207;29;20035;-48
2023/03/04 08:11:26;;;;;;;51.22;33.70;;;11.60;1.00;;;;;;4955125;29;20030;-51
2023/03/04 08:13:53;;;;;;;46.15;32.80;;;11.60;1.00;;;;;;4955028;29;20028;-49
2023/03/04 08:16:19;;;;;;;40.25;29.17;;;11.60;1.00;;;;;;4954764;29;20037;-49
2023/03/04 08:18:47;;;;;;;40.10;30.58;;;11.60;1.00;;;;;;4937709;29;20122;-49
2023/03/04 08:21:14;;;;;;;43.83;29.70;;;11.60;1.00;;;;;;4954264;29;20027;-49
2023/03/04 08:23:41;;;;;;;41.17;29.63;;;11.60;1.00;;;;;;4954123;29;20027;-49
2023/03/04 08:26:23;;;;;;;41.03;30.13;;;11.70;1.00;;;;;;4937570;29;20043;-49
2023/03/04 08:28:49;;;;;;;39.35;30.45;;;11.70;1.00;;;;;;4955719;29;20462;-49
2023/03/04 08:31:17;;;;;;;47.42;34.08;;;11.70;1.00;;;;;;4954828;29;20114;-58
2023/03/04 08:33:43;;;;;;;45.00;30.88;;;11.70;1.00;;;;;;4954823;29;20042;-54
2023/03/04 08:36:09;;;;;;;40.20;29.95;;;11.80;1.00;;;;;;4954704;29;20040;-54
2023/03/04 08:38:35;;;;;;;42.10;30.85;;;11.80;1.00;;;;;;4955023;29;20027;-50
2023/03/04 08:41:02;;;;;;;42.63;31.42;;;11.80;1.00;;;;;;4954992;29;20094;-54
2023/03/04 08:43:28;;;;;;;42.45;31.33;;;11.80;1.00;;;;;;4954674;29;20066;-53
2023/03/04 08:45:54;;;;;;;43.83;31.35;;;11.80;1.00;;;;;;4954689;28;20058;-51
2023/03/04 08:48:21;;;;;;;40.03;30.33;;;11.80;1.00;;;;;;4957543;29;20028;-53
2023/03/04 08:50:48;;;;;;;38.75;30.08;;;11.80;1.00;;;;;;4958430;29;20019;-48
2023/03/04 08:53:15;;;;;;;48.45;34.15;;;11.90;1.00;;;;;;4958450;29;20028;-47
2023/03/04 08:55:42;;;;;;;41.25;30.90;;;11.90;1.00;;;;;;4958134;29;20544;-46
2023/03/04 08:58:08;;;;;;;42.47;31.88;;;12.00;1.00;;;;;;4958348;29;20023;-47
2023/03/04 09:00:37;;;;;;;41.58;32.45;;;12.00;1.00;;;;;;4959010;29;20388;-46
2023/03/04 09:03:03;;;;;;;43.35;31.67;;;12.10;1.00;;;;;;4958113;29;20031;-48
2023/03/04 09:05:30;;;;;;;42.65;31.27;;;12.10;1.00;;;;;;4957765;29;20050;-47
2023/03/04 09:07:56;;;;;;;40.38;31.45;;;12.10;1.00;;;;;;4957367;29;20068;-49
2023/03/04 09:10:23;;;;;;;44.67;32.28;;;12.10;1.00;;;;;;4956173;29;20059;-51
2023/03/04 09:12:49;;;;;;;50.10;33.63;;;12.10;1.00;;;;;;4956567;29;20064;-46
2023/03/04 09:15:14;;;;;;;46.88;34.03;;;12.20;1.00;;;;;;4957509;29;20031;-50
2023/03/04 09:17:40;;;;;;;42.58;32.22;;;12.20;1.00;;;;;;4957570;29;20133;-48
2023/03/04 09:20:09;;;;;;;42.70;32.42;;;12.20;1.00;;;;;;4957600;29;20058;-50
2023/03/04 09:22:38;;;;;;;45.40;34.10;;;12.20;1.00;;;;;;4956355;29;20122;-48
2023/03/04 09:25:04;;;;;;;43.60;33.35;;;12.30;1.00;;;;;;4956336;29;20575;-48
2023/03/04 09:27:45;;;;;;;43.92;32.15;;;12.40;1.00;;;;;;4957295;29;20422;-47
2023/03/04 09:30:12;;;;;;;40.30;31.50;;;12.30;1.00;;;;;;4956806;29;20414;-48
2023/03/04 09:32:38;;;;;;;38.90;30.70;;;12.30;1.00;;;;;;4956967;29;20027;-51
2023/03/04 09:35:04;;;;;;;43.75;33.20;;;12.20;1.00;;;;;;4957036;29;20091;-52
2023/03/04 09:37:30;;;;;;;42.35;33.00;;;12.40;1.00;;;;;;4957516;29;20031;-57
2023/03/04 09:39:56;;;;;;;46.88;33.80;;;12.50;1.00;;;;;;4956971;29;20059;-51
2023/03/04 09:42:29;;;;;;;41.22;32.17;;;12.50;1.00;;;;;;4944400;29;20143;-48
2023/03/04 09:44:55;;;;;;;42.25;32.22;;;12.50;1.00;;;;;;4956553;29;20512;-50
2023/03/04 09:47:24;;;;;;;41.75;31.85;;;12.60;1.00;;;;;;4957040;29;20039;-54
2023/03/04 09:49:58;;;;;;;47.40;32.70;;;12.60;1.00;;;;;;4957030;29;20031;-51
2023/03/04 09:52:27;;;;;;;;;;;12.70;1.00;;;;;;4956287;29;20397;-54
2023/03/04 09:55:11;;;;;;;43.50;32.20;;;12.70;1.00;;;;;;4957569;29;19962;-53
2023/03/04 09:57:40;;;;;;;47.63;33.90;;;12.80;1.00;;;;;;4939706;29;20477;-51
2023/03/04 10:00:18;;;;;;;42.80;32.38;;;12.80;1.00;;;;;;4957273;29;20032;-54
2023/03/04 10:03:05;;;;;;;51.03;34.72;;;12.90;1.00;;;;;;4939497;29;20049;-50
2023/03/04 10:05:36;;;;;;;44.00;32.58;;;12.90;1.00;;;;;;4956503;29;20098;-50
2023/03/04 10:08:11;;;;;;;45.50;30.95;;;13.00;1.00;;;;;;4957549;29;20035;-50
2023/03/04 10:10:42;;;;;;;42.92;31.85;;;13.00;1.00;;;;;;4956955;29;20508;-50
2023/03/04 10:13:17;;;;;;;47.17;32.55;;;13.00;1.00;;;;;;4957113;29;20042;-50
2023/03/04 10:15:47;;;;;;;44.05;32.13;;;13.10;1.00;;;;;;4957226;29;20074;-49
2023/03/04 10:18:18;;;;;;;43.38;31.00;;;13.10;1.00;;;;;;4956972;29;20023;-53
2023/03/04 10:21:03;;;;;;;38.95;30.20;;;13.20;1.00;;;;;;4956822;29;20481;-52
2023/03/04 10:23:31;;;;;;;40.53;30.35;;;13.20;1.00;;;;;;4939655;29;20027;-51
2023/03/04 10:26:00;;;;;;;44.20;32.72;;;13.30;1.00;;;;;;4956701;29;20572;-50
2023/03/04 10:28:31;;;;;;;44.15;34.20;;;13.30;1.00;;;;;;4956900;29;20411;-50
2023/03/04 10:30:57;;;;;;;45.15;33.95;;;13.30;1.00;;;;;;4956889;29;20465;-48
2023/03/04 10:33:29;;;;;;;48.92;33.40;;;13.30;1.00;;;;;;4956777;29;20106;-50
2023/03/04 10:36:14;;;;;;;42.72;30.45;;;13.30;1.00;;;;;;4956666;29;20397;-50
2023/03/04 10:38:41;;;;;;;38.92;30.08;;;13.40;1.00;;;;;;4956890;29;20039;-52
2023/03/04 10:41:18;;;;;;;40.97;30.70;;;13.40;1.00;;;;;;4956442;29;20020;-54
2023/03/04 10:44:10;;;;;;;38.60;29.77;;;13.50;1.00;;;;;;4956754;29;20049;-53
2023/03/04 10:46:40;;;;;;;43.75;33.17;;;13.50;1.00;;;;;;4943149;29;20051;-52
2023/03/04 10:49:06;;;;;;;42.25;31.27;;;13.50;1.00;;;;;;4956191;29;20489;-54
2023/03/04 10:51:40;;;;;;;44.78;32.53;;;13.60;1.00;;;;;;4956072;29;20082;-52
2023/03/04 10:54:20;;;;;;;44.00;32.60;;;13.70;1.00;;;;;;4956498;29;20041;-52
2023/03/04 10:56:56;;;;;;;43.30;32.42;;;13.70;1.00;;;;;;4956806;29;20019;-51
2023/03/04 10:59:24;;;;;;;42.92;32.35;;;13.80;1.00;;;;;;4956230;29;20063;-54
2023/03/04 11:01:53;;;;;;;46.13;31.75;;;13.80;1.00;;;;;;4956442;29;20373;-52
2023/03/04 11:04:21;;;;;;;43.78;30.23;;;13.90;1.00;;;;;;4952111;29;20549;-54
2023/03/04 11:06:47;;;;;;;40.25;31.33;;;13.90;1.00;;;;;;4954617;29;20047;-54
2023/03/04 11:09:25;;;;;;;42.08;31.52;;;13.90;1.00;;;;;;4951354;28;20027;-52
2023/03/04 11:11:53;;;;;;;41.35;31.27;;;14.00;1.00;;;;;;4955352;29;20039;-55
2023/03/04 11:14:28;;;;;;;41.75;31.67;;;14.10;1.00;;;;;;4955345;29;20076;-55
2023/03/04 11:16:57;;;;;;;39.83;30.60;;;14.10;1.00;;;;;;4946568;29;20162;-52
2023/03/04 11:19:37;;;;;;;46.08;32.33;;;14.20;1.00;;;;;;4936856;29;20039;-52
2023/03/04 11:22:03;;;;;;;45.28;32.75;;;14.30;1.00;;;;;;4936634;29;20040;-50
2023/03/04 11:24:31;;;;;;;42.05;31.58;;;14.30;1.00;;;;;;4947398;29;20046;-54
2023/03/04 11:27:16;;;;;;;38.90;30.02;;;14.40;1.00;;;;;;4955027;29;20195;-55
2023/03/04 11:29:55;;;;;;;39.05;30.70;;;14.40;1.00;;;;;;4953498;29;20389;-54
2023/03/04 11:32:28;;;;;;;43.03;31.65;;;14.40;1.00;;;;;;4953819;29;20516;-50
2023/03/04 11:35:04;;;;;;;39.63;31.20;;;14.50;1.00;;;;;;4952740;29;20027;-55
2023/03/04 11:37:39;;;;;;;43.47;31.52;;;14.60;1.00;;;;;;4951779;29;20035;-53
2023/03/04 11:40:12;;;;;;;40.10;31.27;;;14.60;1.00;;;;;;4936238;29;20036;-52
2023/03/04 11:42:41;;;;;;;41.53;32.10;;;14.70;1.00;;;;;;4953381;29;20114;-52
2023/03/04 11:45:23;;;;;;;42.47;32.85;;;14.70;1.00;;;;;;4954728;29;20034;-54
2023/03/04 11:48:07;;;;;;;48.15;33.90;;;14.70;1.00;;;;;;4954193;29;20046;-53
2023/03/04 11:51:01;;;;;;;43.63;33.15;;;14.70;1.00;;;;;;4953548;29;20027;-53
2023/03/04 11:53:26;;;;;;;40.60;32.33;;;14.60;1.00;;;;;;4954724;29;20042;-57
2023/03/04 11:56:23;;;;;;;41.22;29.45;;;14.80;1.00;;;;;;4936453;29;20397;-55
2023/03/04 11:59:01;;;;;;;38.95;29.20;;;14.80;1.00;;;;;;4951811;29;20082;-51
2023/03/04 12:01:46;;;;;;;37.40;27.55;;;14.90;1.00;;;;;;4936420;29;20039;-53
2023/03/04 12:04:12;;;;;;;32.47;25.80;;;14.90;1.00;;;;;;4954001;29;20516;-52
2023/03/04 12:07:16;;;;;;;35.58;25.35;;;15.00;1.00;;;;;;4955064;29;20043;-54
2023/03/04 12:09:44;;;;;;;31.83;24.73;;;15.10;1.00;;;;;;4954771;29;20401;-48
2023/03/04 12:12:41;;;;;;;32.60;24.08;;;15.10;1.00;;;;;;4954982;29;20038;-53
2023/03/04 12:15:45;;;;;;;33.72;23.23;;;15.20;1.00;;;;;;4955800;28;20036;-54
2023/03/04 12:18:15;;;;;;;29.10;22.27;;;15.40;1.00;;;;;;4953645;29;20054;-54
2023/03/04 12:20:46;;;;;;;26.70;22.42;;;15.50;1.00;;;;;;4954040;28;20042;-53
2023/03/04 12:23:36;;;;;;;30.67;23.23;;;15.60;1.00;;;;;;4958346;29;20493;-56
2023/03/04 12:26:25;;;;;;;30.45;24.27;;;15.70;1.00;;;;;;4958718;29;20066;-54
2023/03/04 12:28:54;;;;;;;30.90;21.77;;;15.80;1.00;;;;;;4911810;29;20082;-53
2023/03/04 12:31:36;;;;;;;28.02;21.27;;;15.80;1.00;;;;;;4952189;29;20031;-54
2023/03/04 12:34:33;;;;;;;35.00;23.60;;;15.80;1.00;;;;;;4957200;29;20066;-55
2023/03/04 12:37:16;;;;;;;30.60;23.05;;;15.90;1.00;;;;;;4953913;28;20027;-51
2023/03/04 12:39:56;;;;;;;30.15;22.42;;;16.00;1.00;;;;;;4950325;29;20028;-56
2023/03/04 12:42:22;;;;;;;25.75;21.30;;;16.10;1.00;;;;;;4957957;29;20061;-53
2023/03/04 12:45:17;;;;;;;27.25;20.35;;;16.20;1.00;;;;;;4958624;29;20465;-53
2023/03/04 12:48:10;;;;;;;30.42;20.67;;;16.20;1.00;;;;;;4940191;29;20109;-53